Time;durP1;ratioP1;P1;durP2;ratioP2;P2;SDS_P1;SDS_P2;PMS_P1;PMS_P2;Temp;Humidity;BMP_temperature;BMP_pressure;BME280_temperature;BME280_humidity;BME280_pressure;Samples;Min_cycle;Max_cycle;Signal;HPM_P1;HPM_P2
2022/06/18 00:00:45;;;;;;;5.35;2.13;;;26.50;69.10;;;;;;5033838;28;20454;-72
2022/06/18 00:03:12;;;;;;;5.03;2.00;;;26.50;69.30;;;;;;5034558;28;20035;-71
2022/06/18 00:05:41;;;;;;;7.20;2.00;;;26.50;69.40;;;;;;5034018;28;20497;-71
2022/06/18 00:08:15;;;;;;;3.60;2.20;;;26.50;69.40;;;;;;5033333;28;20380;-71
2022/06/18 00:10:41;;;;;;;3.28;2.10;;;26.50;69.40;;;;;;5033266;28;20057;-71
2022/06/18 00:13:39;;;;;;;3.97;2.20;;;26.40;69.30;;;;;;5033365;28;20509;-71
2022/06/18 00:16:08;;;;;;;4.32;2.10;;;26.40;69.40;;;;;;5033500;28;20065;-70
2022/06/18 00:18:34;;;;;;;3.60;2.10;;;26.40;69.60;;;;;;5032975;28;20025;-70
2022/06/18 00:21:00;;;;;;;3.55;1.92;;;26.40;69.60;;;;;;5032697;28;20033;-71
2022/06/18 00:23:28;;;;;;;5.90;2.75;;;26.40;69.80;;;;;;5033207;28;20022;-71
2022/06/18 00:25:54;;;;;;;3.88;1.85;;;26.30;69.80;;;;;;5033322;28;20037;-67
2022/06/18 00:28:23;;;;;;;3.88;2.67;;;26.30;69.80;;;;;;5032704;28;20386;-70
2022/06/18 00:30:50;;;;;;;10.02;2.92;;;26.30;69.70;;;;;;5032851;28;20044;-73
2022/06/18 00:33:16;;;;;;;4.35;2.40;;;26.40;69.70;;;;;;5033201;28;20500;-70
2022/06/18 00:35:44;;;;;;;5.00;2.70;;;26.30;69.60;;;;;;5032853;28;20036;-71
2022/06/18 00:38:21;;;;;;;6.68;2.53;;;26.30;69.80;;;;;;5032651;28;20761;-73
2022/06/18 00:40:47;;;;;;;7.10;2.45;;;26.20;69.50;;;;;;5014278;28;20068;-72
2022/06/18 00:43:35;;;;;;;4.22;2.30;;;26.20;69.30;;;;;;5033090;28;20064;-71
2022/06/18 00:46:22;;;;;;;6.07;2.80;;;26.30;69.20;;;;;;5033134;28;20030;-71
2022/06/18 00:49:12;;;;;;;3.50;2.17;;;26.20;69.00;;;;;;5032533;28;20025;-69
2022/06/18 00:51:44;;;;;;;8.90;3.03;;;26.20;68.90;;;;;;5032759;28;20037;-71
2022/06/18 00:54:24;;;;;;;;;;;26.20;69.00;;;;;;5033140;28;20510;-71
2022/06/18 00:56:58;;;;;;;4.45;2.53;;;26.20;68.80;;;;;;5032500;28;19916;-73
2022/06/18 00:59:50;;;;;;;5.78;3.17;;;26.10;68.70;;;;;;5032987;28;20030;-73
2022/06/18 01:02:26;;;;;;;5.70;2.80;;;26.20;68.90;;;;;;5021770;28;20033;-73
2022/06/18 01:04:52;;;;;;;8.52;3.17;;;26.10;68.90;;;;;;5032696;28;20120;-71
2022/06/18 01:07:18;;;;;;;10.57;3.40;;;26.10;68.90;;;;;;5032500;28;20030;-69
2022/06/18 01:09:47;;;;;;;15.15;3.00;;;26.10;68.90;;;;;;5032937;28;20021;-73
2022/06/18 01:12:13;;;;;;;7.80;2.72;;;26.00;68.90;;;;;;5032691;28;20087;-73
2022/06/18 01:14:39;;;;;;;7.57;3.40;;;26.10;69.10;;;;;;5031522;28;20457;-73
2022/06/18 01:17:06;;;;;;;7.32;3.28;;;26.00;69.00;;;;;;5032546;28;20469;-73
2022/06/18 01:19:39;;;;;;;8.70;3.15;;;26.00;69.00;;;;;;5033112;28;20022;-72
2022/06/18 01:22:12;;;;;;;8.07;3.20;;;26.00;69.00;;;;;;5032696;28;20025;-72
2022/06/18 01:24:40;;;;;;;8.85;2.83;;;26.00;68.90;;;;;;5035066;28;20029;-72
2022/06/18 01:27:08;;;;;;;5.07;3.00;;;26.00;68.90;;;;;;5034737;28;20582;-70
2022/06/18 01:29:34;;;;;;;5.50;2.63;;;26.00;68.80;;;;;;5033767;28;20033;-73
2022/06/18 01:32:00;;;;;;;7.97;3.33;;;26.00;68.70;;;;;;5034754;28;20033;-70
2022/06/18 01:34:26;;;;;;;6.00;2.75;;;25.90;68.70;;;;;;5036776;28;20046;-71
2022/06/18 01:36:53;;;;;;;10.82;3.40;;;25.90;68.60;;;;;;5036161;28;20371;-65
2022/06/18 01:39:23;;;;;;;6.85;2.92;;;25.90;68.60;;;;;;5036483;28;20048;-70
2022/06/18 01:41:56;;;;;;;5.80;3.03;;;25.90;68.60;;;;;;5035739;28;20033;-69
2022/06/18 01:44:31;;;;;;;9.80;3.83;;;25.90;68.60;;;;;;5036343;28;20036;-72
2022/06/18 01:47:01;;;;;;;6.00;2.72;;;25.90;68.60;;;;;;5035866;28;20034;-66
2022/06/18 01:49:36;;;;;;;5.35;2.83;;;25.80;68.50;;;;;;5035845;28;20029;-69
2022/06/18 01:52:05;;;;;;;6.28;2.97;;;25.80;68.50;;;;;;5035625;28;20497;-73
2022/06/18 01:54:37;;;;;;;10.20;3.00;;;25.80;68.50;;;;;;5035306;28;20041;-73
2022/06/18 01:57:09;;;;;;;6.65;3.15;;;25.80;68.50;;;;;;5035957;28;20025;-73
2022/06/18 01:59:43;;;;;;;10.82;3.67;;;25.80;68.60;;;;;;5035914;28;20379;-73
2022/06/18 02:02:09;;;;;;;6.60;3.33;;;25.70;68.40;;;;;;5034901;28;20029;-72
2022/06/18 02:04:35;;;;;;;7.80;2.90;;;25.80;68.50;;;;;;5035980;28;20078;-73
2022/06/18 02:07:04;;;;;;;5.57;3.13;;;25.70;68.40;;;;;;5035811;28;20060;-73
2022/06/18 02:09:41;;;;;;;5.60;3.22;;;25.70;68.30;;;;;;5035730;28;20013;-73
2022/06/18 02:12:16;;;;;;;6.47;3.20;;;25.70;68.30;;;;;;5035219;28;20034;-69
2022/06/18 02:14:46;;;;;;;9.75;3.22;;;25.70;68.40;;;;;;5035530;28;20045;-71
2022/06/18 02:17:17;;;;;;;8.13;2.90;;;25.70;68.30;;;;;;5035488;28;20024;-72
2022/06/18 02:19:47;;;;;;;7.28;3.45;;;25.70;68.30;;;;;;5035841;28;20049;-73
2022/06/18 02:22:13;;;;;;;7.57;3.22;;;25.60;68.40;;;;;;5035025;28;20466;-71
2022/06/18 02:24:40;;;;;;;10.18;3.13;;;25.60;68.40;;;;;;5035652;28;20052;-72
2022/06/18 02:27:08;;;;;;;6.07;2.90;;;25.60;68.30;;;;;;5035500;28;20041;-72
2022/06/18 02:29:34;;;;;;;7.15;2.83;;;25.60;68.30;;;;;;5035081;28;20541;-71
2022/06/18 02:32:01;;;;;;;8.00;2.75;;;25.60;68.30;;;;;;5034923;28;20109;-68
2022/06/18 02:34:30;;;;;;;5.40;2.85;;;25.50;68.10;;;;;;5034996;28;20029;-68
2022/06/18 02:36:56;;;;;;;6.88;2.90;;;25.60;68.20;;;;;;5035372;28;20382;-72
2022/06/18 02:39:39;;;;;;;7.45;3.30;;;25.50;68.00;;;;;;5035310;28;20025;-72
2022/06/18 02:42:12;;;;;;;6.65;2.78;;;25.50;68.10;;;;;;5034415;28;20095;-73
2022/06/18 02:44:39;;;;;;;8.15;3.10;;;25.50;68.20;;;;;;5034529;28;20030;-72
2022/06/18 02:47:06;;;;;;;9.35;3.05;;;25.50;68.10;;;;;;5035161;28;20033;-73
2022/06/18 02:49:36;;;;;;;5.00;2.92;;;25.50;68.10;;;;;;5035171;28;20097;-71
2022/06/18 02:52:04;;;;;;;6.72;2.88;;;25.50;68.10;;;;;;5017193;28;20390;-72
2022/06/18 02:54:30;;;;;;;8.18;3.70;;;25.40;68.10;;;;;;5034390;28;20501;-72
2022/06/18 02:57:00;;;;;;;6.13;3.10;;;25.40;68.10;;;;;;5034697;28;20017;-72
2022/06/18 02:59:26;;;;;;;9.63;3.30;;;25.40;68.20;;;;;;5035341;28;20025;-69
2022/06/18 03:01:52;;;;;;;6.80;2.50;;;25.40;68.10;;;;;;5035651;28;20018;-71
2022/06/18 03:04:18;;;;;;;7.03;3.22;;;25.40;68.30;;;;;;5034735;28;20355;-72
2022/06/18 03:06:43;;;;;;;9.30;3.05;;;25.30;68.30;;;;;;5034846;28;20030;-70
2022/06/18 03:09:10;;;;;;;10.10;3.25;;;25.30;68.50;;;;;;5034587;28;20025;-70
2022/06/18 03:14:20;;;;;;;8.90;3.72;;;25.30;68.60;;;;;;5034290;28;20048;-67
2022/06/18 03:16:46;;;;;;;5.55;3.08;;;25.30;68.60;;;;;;5034603;28;20017;-71
2022/06/18 03:19:30;;;;;;;7.75;3.33;;;25.20;68.70;;;;;;5034416;28;20029;-66
2022/06/18 03:22:05;;;;;;;9.48;3.28;;;25.20;68.70;;;;;;5033737;28;20072;-68
2022/06/18 03:24:31;;;;;;;6.63;3.08;;;25.20;69.30;;;;;;5034256;28;20017;-69
2022/06/18 03:26:56;;;;;;;6.65;3.30;;;25.20;69.40;;;;;;5034363;28;20029;-67
2022/06/18 03:29:22;;;;;;;7.05;3.42;;;25.20;69.70;;;;;;5034005;28;20017;-67
2022/06/18 03:31:48;;;;;;;7.15;3.17;;;25.20;69.80;;;;;;5033906;28;20032;-67
2022/06/18 03:34:13;;;;;;;5.07;3.13;;;25.20;70.00;;;;;;5034144;28;20479;-67
2022/06/18 03:36:39;;;;;;;8.18;3.40;;;25.10;70.00;;;;;;5034179;28;20021;-67
2022/06/18 03:39:06;;;;;;;10.13;3.70;;;25.10;70.20;;;;;;5034104;28;20026;-67
2022/06/18 03:41:32;;;;;;;7.85;3.22;;;25.10;70.30;;;;;;5033631;28;20059;-66
2022/06/18 03:43:58;;;;;;;7.05;3.58;;;25.10;70.80;;;;;;5031361;28;20058;-65
2022/06/18 03:46:23;;;;;;;6.18;3.50;;;25.10;70.20;;;;;;5011864;28;20398;-69
2022/06/18 03:48:59;;;;;;;12.82;3.70;;;25.00;70.20;;;;;;5032128;28;20115;-69
2022/06/18 03:51:26;;;;;;;10.65;3.55;;;25.00;69.90;;;;;;5033736;28;20025;-68
2022/06/18 03:53:52;;;;;;;16.73;4.25;;;25.10;69.90;;;;;;5032817;28;20064;-73
2022/06/18 03:56:21;;;;;;;16.88;3.80;;;25.00;70.50;;;;;;5034171;28;20033;-71
2022/06/18 03:58:48;;;;;;;13.52;3.53;;;25.00;70.00;;;;;;5035412;28;20033;-73
2022/06/18 04:01:17;;;;;;;6.90;3.00;;;25.00;69.80;;;;;;5036257;28;20096;-73
2022/06/18 04:03:43;;;;;;;11.02;3.92;;;25.00;69.90;;;;;;5033104;28;20478;-72
2022/06/18 04:06:09;;;;;;;8.43;3.80;;;25.00;69.80;;;;;;5033020;28;20029;-68
2022/06/18 04:08:35;;;;;;;11.88;3.72;;;24.90;69.90;;;;;;5033708;28;20017;-70
2022/06/18 04:11:01;;;;;;;6.82;3.85;;;25.00;69.90;;;;;;5033425;28;20025;-72
2022/06/18 04:13:28;;;;;;;8.68;3.53;;;24.90;69.90;;;;;;5032973;28;20037;-72
2022/06/18 04:15:54;;;;;;;10.32;3.88;;;24.90;70.00;;;;;;5033429;28;20041;-72
2022/06/18 04:18:20;;;;;;;8.00;3.75;;;24.90;69.90;;;;;;5033372;28;20032;-72
2022/06/18 04:20:46;;;;;;;5.03;3.30;;;24.90;70.00;;;;;;5033433;28;20022;-70
2022/06/18 04:23:15;;;;;;;10.35;3.83;;;24.90;70.00;;;;;;5033298;28;20489;-73
2022/06/18 04:25:41;;;;;;;7.35;3.83;;;24.90;69.90;;;;;;5033048;28;20025;-73
2022/06/18 04:28:06;;;;;;;7.45;3.85;;;24.90;70.10;;;;;;5033443;28;20083;-71
2022/06/18 04:30:33;;;;;;;6.15;3.78;;;24.90;70.00;;;;;;5033104;28;20025;-70
2022/06/18 04:32:59;;;;;;;8.32;3.75;;;24.90;70.30;;;;;;5032437;28;20056;-72
2022/06/18 04:35:26;;;;;;;6.70;3.70;;;24.90;70.10;;;;;;5032998;28;20021;-72
2022/06/18 04:37:51;;;;;;;10.38;4.05;;;24.90;70.00;;;;;;5033338;28;20021;-73
2022/06/18 04:40:20;;;;;;;10.57;3.28;;;24.90;69.80;;;;;;5032772;28;20103;-70
2022/06/18 04:42:46;;;;;;;9.95;3.58;;;24.90;69.80;;;;;;5032490;28;20034;-72
2022/06/18 04:45:12;;;;;;;9.93;4.13;;;24.90;70.10;;;;;;5033143;28;20382;-72
2022/06/18 04:47:40;;;;;;;8.25;3.67;;;24.90;69.80;;;;;;5033001;28;20486;-71
2022/06/18 04:50:08;;;;;;;8.30;3.58;;;24.90;69.80;;;;;;5033171;28;20021;-71
2022/06/18 04:52:34;;;;;;;10.02;3.33;;;24.90;70.50;;;;;;5032493;28;20018;-72
2022/06/18 04:54:59;;;;;;;11.52;3.70;;;24.90;70.10;;;;;;5032729;28;20056;-72
2022/06/18 04:57:25;;;;;;;9.23;3.83;;;24.90;70.10;;;;;;5032804;28;20383;-73
2022/06/18 04:59:50;;;;;;;9.55;3.78;;;24.90;70.20;;;;;;5032824;28;20029;-72
2022/06/18 05:02:22;;;;;;;6.75;3.60;;;24.90;70.20;;;;;;5028207;28;20025;-73
2022/06/18 05:04:47;;;;;;;9.20;4.20;;;24.90;70.40;;;;;;5025317;28;20029;-72
2022/06/18 05:07:13;;;;;;;5.88;3.15;;;24.90;70.30;;;;;;5033679;28;20021;-73
2022/06/18 05:09:39;;;;;;;7.20;3.63;;;24.90;70.60;;;;;;5036506;28;20459;-73
2022/06/18 05:12:05;;;;;;;9.80;3.92;;;24.90;70.40;;;;;;5036424;28;20021;-73
2022/06/18 05:14:31;;;;;;;9.18;4.10;;;25.00;70.20;;;;;;5036806;28;20041;-72
2022/06/18 05:16:58;;;;;;;7.32;3.50;;;25.00;70.50;;;;;;5036653;28;20033;-73
2022/06/18 05:19:26;;;;;;;10.00;3.42;;;24.90;70.50;;;;;;5036788;28;20064;-73
2022/06/18 05:21:52;;;;;;;9.85;3.60;;;25.00;70.60;;;;;;5036443;28;20029;-73
2022/06/18 05:24:18;;;;;;;11.05;3.60;;;25.00;70.60;;;;;;5036164;28;20109;-72
2022/06/18 05:26:48;;;;;;;11.55;4.05;;;25.00;70.60;;;;;;5036605;28;20026;-72
2022/06/18 05:29:15;;;;;;;8.77;3.78;;;25.10;70.50;;;;;;5036562;28;20089;-72
2022/06/18 05:31:41;;;;;;;13.80;3.83;;;25.10;70.80;;;;;;5036142;28;20021;-72
2022/06/18 05:34:07;;;;;;;10.55;4.20;;;25.10;70.90;;;;;;5018966;28;20042;-72
2022/06/18 05:36:33;;;;;;;10.10;3.92;;;25.10;70.90;;;;;;5034532;28;20398;-71
2022/06/18 05:39:00;;;;;;;9.32;3.53;;;25.10;71.00;;;;;;5026223;28;20029;-69
2022/06/18 05:41:26;;;;;;;8.35;3.63;;;25.10;71.20;;;;;;5027565;28;20056;-70
2022/06/18 05:43:52;;;;;;;8.57;3.65;;;25.10;71.20;;;;;;5035482;28;20071;-70
2022/06/18 05:46:17;;;;;;;8.50;3.22;;;25.10;71.30;;;;;;5035070;28;20033;-70
2022/06/18 05:48:43;;;;;;;8.65;3.28;;;25.10;71.50;;;;;;5034850;28;20040;-69
2022/06/18 05:51:08;;;;;;;10.10;3.08;;;25.20;71.60;;;;;;5034830;28;20047;-71
2022/06/18 05:53:34;;;;;;;8.60;3.45;;;25.20;71.80;;;;;;5033888;28;20029;-68
2022/06/18 05:56:00;;;;;;;8.90;3.33;;;25.20;72.00;;;;;;5034939;28;20057;-70
2022/06/18 05:58:25;;;;;;;11.25;3.92;;;25.30;71.80;;;;;;5034627;28;20083;-71
2022/06/18 06:00:51;;;;;;;6.68;2.80;;;25.30;71.80;;;;;;5033769;28;20095;-68
2022/06/18 06:03:17;;;;;;;10.30;3.45;;;25.30;72.00;;;;;;5033590;28;20056;-71
2022/06/18 06:05:42;;;;;;;8.60;3.58;;;25.30;71.80;;;;;;5035047;28;20056;-71
2022/06/18 06:08:11;;;;;;;6.05;3.60;;;25.30;71.60;;;;;;5029982;28;20032;-71
2022/06/18 06:13:22;;;;;;;11.85;3.80;;;25.40;71.70;;;;;;5023288;28;20049;-71
2022/06/18 06:15:48;;;;;;;11.45;3.78;;;25.40;71.70;;;;;;5035353;28;20026;-70
2022/06/18 06:18:16;;;;;;;11.40;4.15;;;25.50;71.60;;;;;;5034327;28;20022;-71
2022/06/18 06:20:44;;;;;;;10.32;4.22;;;25.50;72.20;;;;;;5035314;28;20021;-72
2022/06/18 06:23:10;;;;;;;11.73;4.75;;;25.50;71.40;;;;;;5030490;28;20026;-71
2022/06/18 06:25:38;;;;;;;10.40;3.67;;;25.60;71.20;;;;;;5031058;28;20104;-71
2022/06/18 06:28:04;;;;;;;8.68;3.20;;;25.60;71.10;;;;;;5017036;28;20044;-71
2022/06/18 06:30:30;;;;;;;12.07;3.80;;;25.60;71.50;;;;;;5031456;28;20143;-71
2022/06/18 06:32:56;;;;;;;10.07;4.07;;;25.70;71.30;;;;;;5033993;28;20115;-72
2022/06/18 06:35:21;;;;;;;10.38;4.20;;;25.70;71.10;;;;;;5004634;28;20033;-69
2022/06/18 06:37:47;;;;;;;10.32;4.15;;;25.70;71.20;;;;;;5033370;28;20065;-67
2022/06/18 06:40:13;;;;;;;9.10;3.45;;;25.80;71.40;;;;;;5033974;28;20022;-71
2022/06/18 06:42:48;;;;;;;9.52;4.30;;;25.80;71.40;;;;;;5034318;28;20044;-71
2022/06/18 06:45:15;;;;;;;11.88;3.85;;;25.90;71.40;;;;;;5033332;28;20037;-71
2022/06/18 06:47:41;;;;;;;7.75;3.03;;;25.90;71.40;;;;;;5033751;28;20026;-71
2022/06/18 06:50:09;;;;;;;7.57;3.60;;;25.90;71.40;;;;;;5033525;28;20029;-71
2022/06/18 06:52:35;;;;;;;6.32;2.60;;;25.90;72.20;;;;;;5032031;28;20021;-71
2022/06/18 06:57:45;;;;;;;13.65;4.63;;;25.90;71.40;;;;;;5034001;28;20506;-71
2022/06/18 07:00:12;;;;;;;12.15;5.00;;;26.00;71.40;;;;;;5028625;28;20038;-70
2022/06/18 07:02:38;;;;;;;11.15;3.80;;;26.10;71.40;;;;;;5030265;28;20029;-67
2022/06/18 07:05:04;;;;;;;8.23;4.30;;;26.10;71.70;;;;;;5030856;28;20021;-66
2022/06/18 07:07:30;;;;;;;3.65;2.58;;;26.20;71.40;;;;;;5032839;28;20041;-70
2022/06/18 07:09:56;;;;;;;5.20;2.72;;;26.10;70.50;;;;;;5031926;28;20026;-69
2022/06/18 07:12:21;;;;;;;86.70;12.20;;;26.10;70.50;;;;;;5032209;28;20410;-70
2022/06/18 07:14:47;;;;;;;46.20;7.00;;;26.20;71.10;;;;;;5032903;28;20052;-73
2022/06/18 07:17:17;;;;;;;38.58;6.47;;;26.10;71.00;;;;;;5033241;28;20060;-73
2022/06/18 07:19:42;;;;;;;17.70;4.15;;;26.20;71.20;;;;;;5029426;28;20029;-72
2022/06/18 07:22:10;;;;;;;18.73;5.38;;;26.20;71.10;;;;;;5031852;28;20441;-71
2022/06/18 07:24:36;;;;;;;9.45;4.22;;;26.30;71.10;;;;;;5032617;28;20087;-70
2022/06/18 07:27:03;;;;;;;6.45;2.70;;;26.30;71.10;;;;;;5033305;28;20021;-73
2022/06/18 07:29:29;;;;;;;10.52;3.80;;;26.30;71.00;;;;;;5030363;28;20471;-73
2022/06/18 07:31:55;;;;;;;9.60;4.30;;;26.40;70.70;;;;;;5032107;28;20028;-73
2022/06/18 07:34:20;;;;;;;13.07;5.18;;;26.50;70.80;;;;;;5026777;28;20455;-68
2022/06/18 07:36:46;;;;;;;9.18;3.17;;;26.50;70.90;;;;;;5032514;28;20371;-70
2022/06/18 07:39:11;;;;;;;6.82;2.92;;;26.40;70.10;;;;;;5031629;28;20106;-72
2022/06/18 07:41:45;;;;;;;9.68;2.63;;;26.40;70.50;;;;;;5032178;28;20092;-72
2022/06/18 07:44:11;;;;;;;12.43;4.32;;;26.30;70.40;;;;;;5031961;28;20033;-70
2022/06/18 07:46:37;;;;;;;10.60;3.88;;;26.30;70.90;;;;;;5032200;28;20037;-73
2022/06/18 07:49:05;;;;;;;7.38;3.40;;;26.30;70.90;;;;;;5031593;28;20025;-73
2022/06/18 07:51:31;;;;;;;12.32;3.70;;;26.30;70.90;;;;;;5031978;28;20099;-73
2022/06/18 07:53:56;;;;;;;8.73;3.42;;;26.30;70.90;;;;;;5033027;28;20420;-74
2022/06/18 07:56:22;;;;;;;8.32;3.55;;;26.30;70.70;;;;;;5030221;28;20577;-70
2022/06/18 07:58:48;;;;;;;12.30;3.90;;;26.30;70.80;;;;;;5031526;28;20033;-72
2022/06/18 08:01:14;;;;;;;12.45;4.15;;;26.40;70.70;;;;;;5031262;28;20018;-70
2022/06/18 08:03:39;;;;;;;15.55;3.70;;;26.40;70.60;;;;;;5031165;28;20378;-73
2022/06/18 08:06:07;;;;;;;14.75;4.70;;;26.30;70.60;;;;;;5027520;28;20040;-73
2022/06/18 08:08:32;;;;;;;14.98;4.38;;;26.40;70.70;;;;;;5028905;28;20021;-70
2022/06/18 08:10:58;;;;;;;16.05;4.40;;;26.50;70.70;;;;;;5032783;28;20108;-70
2022/06/18 08:13:24;;;;;;;12.73;4.13;;;26.50;70.80;;;;;;5031478;28;20115;-70
2022/06/18 08:15:49;;;;;;;11.50;4.00;;;26.50;71.00;;;;;;5030666;28;20060;-68
2022/06/18 08:18:15;;;;;;;12.38;4.10;;;26.60;70.90;;;;;;5025598;28;20529;-70
2022/06/18 08:20:41;;;;;;;14.38;4.32;;;26.50;70.90;;;;;;5031619;28;20439;-72
2022/06/18 08:23:08;;;;;;;18.45;4.50;;;26.50;71.10;;;;;;5031624;28;20029;-71
2022/06/18 08:25:37;;;;;;;14.40;4.40;;;26.60;71.00;;;;;;5030316;28;20467;-70
2022/06/18 08:28:05;;;;;;;16.20;4.68;;;26.60;71.00;;;;;;5029718;28;20032;-70
2022/06/18 08:30:31;;;;;;;16.13;4.05;;;26.60;71.70;;;;;;5026308;28;20029;-71
2022/06/18 08:32:57;;;;;;;13.52;4.35;;;26.60;71.10;;;;;;5021697;28;20073;-71
2022/06/18 08:35:23;;;;;;;14.57;4.28;;;26.60;71.20;;;;;;5030991;28;20092;-71
2022/06/18 08:37:49;;;;;;;15.63;4.95;;;26.50;71.40;;;;;;5032420;28;20029;-71
2022/06/18 08:40:34;;;;;;;12.02;4.32;;;26.60;71.30;;;;;;5029569;28;20029;-68
2022/06/18 08:43:29;;;;;;;11.95;4.50;;;26.60;71.00;;;;;;5032016;28;20128;-65
2022/06/18 08:46:09;;;;;;;14.98;4.63;;;26.60;71.30;;;;;;5019126;28;20475;-71
2022/06/18 08:49:03;;;;;;;9.27;3.80;;;26.60;71.30;;;;;;5024144;28;20051;-70
2022/06/18 08:51:36;;;;;;;13.35;4.32;;;26.60;71.10;;;;;;4990633;28;20068;-70
2022/06/18 08:54:17;;;;;;;13.00;3.80;;;26.60;71.20;;;;;;5030357;28;20034;-71
2022/06/18 08:56:50;;;;;;;12.70;4.22;;;26.60;71.10;;;;;;5028653;28;20030;-72
2022/06/18 08:59:26;;;;;;;9.82;3.38;;;26.60;71.00;;;;;;5028515;28;20120;-72
2022/06/18 09:02:01;;;;;;;9.32;3.97;;;26.70;71.00;;;;;;5025327;28;20479;-71
2022/06/18 09:05:13;;;;;;;10.02;3.88;;;26.70;71.00;;;;;;5029707;28;20025;-70
2022/06/18 09:07:51;;;;;;;15.45;4.00;;;26.70;71.10;;;;;;4982909;28;20108;-71
2022/06/18 09:10:25;;;;;;;7.60;3.40;;;26.70;71.10;;;;;;5028043;28;20033;-71
2022/06/18 09:13:16;;;;;;;10.07;3.70;;;26.70;71.20;;;;;;5028761;28;20119;-70
2022/06/18 09:15:53;;;;;;;12.40;3.85;;;26.70;71.40;;;;;;5020292;28;20116;-68
2022/06/18 09:18:36;;;;;;;10.82;3.70;;;26.80;71.30;;;;;;5025356;28;20029;-71
2022/06/18 09:21:09;;;;;;;11.02;3.55;;;26.70;71.40;;;;;;5026664;28;20025;-72
2022/06/18 09:23:46;;;;;;;9.05;3.72;;;26.70;71.30;;;;;;5029121;28;20083;-72
2022/06/18 09:26:21;;;;;;;14.90;4.22;;;26.80;71.30;;;;;;5029448;28;20026;-72
2022/06/18 09:29:01;;;;;;;12.60;4.00;;;26.80;71.30;;;;;;5027539;28;20496;-71
2022/06/18 09:31:35;;;;;;;9.95;3.47;;;26.80;71.40;;;;;;5029832;28;20029;-72
2022/06/18 09:34:08;;;;;;;9.25;3.63;;;26.80;71.90;;;;;;5029632;28;20120;-71
2022/06/18 09:36:40;;;;;;;9.15;3.80;;;26.80;71.10;;;;;;5001003;28;20475;-70
2022/06/18 09:39:18;;;;;;;12.65;3.67;;;26.90;71.20;;;;;;5029621;28;20514;-71
2022/06/18 09:41:56;;;;;;;8.10;3.78;;;26.90;71.40;;;;;;5028584;28;20036;-70
2022/06/18 09:44:40;;;;;;;6.22;3.45;;;26.90;71.60;;;;;;5024339;28;20041;-71
2022/06/18 09:47:16;;;;;;;8.68;3.42;;;26.90;71.60;;;;;;5025772;28;20153;-68
2022/06/18 09:49:45;;;;;;;7.55;3.58;;;27.00;71.50;;;;;;5026983;28;20517;-72
2022/06/18 09:52:16;;;;;;;9.40;3.90;;;27.00;71.60;;;;;;5028001;28;20075;-71
2022/06/18 09:54:55;;;;;;;10.02;3.45;;;26.90;71.70;;;;;;5032048;28;20524;-72
2022/06/18 09:57:29;;;;;;;7.75;3.35;;;26.90;71.70;;;;;;5030520;28;20029;-69
2022/06/18 10:00:08;;;;;;;14.02;3.65;;;27.00;71.70;;;;;;5030221;28;20029;-72
2022/06/18 10:02:38;;;;;;;8.25;3.63;;;27.00;71.60;;;;;;5031592;28;20057;-72
2022/06/18 10:07:52;;;;;;;9.95;3.63;;;27.00;71.90;;;;;;5031574;28;20521;-73
2022/06/18 10:10:26;;;;;;;10.93;3.63;;;27.00;71.90;;;;;;5028040;28;20030;-69
2022/06/18 10:12:55;;;;;;;9.60;3.80;;;27.00;72.00;;;;;;5033228;28;20533;-71
2022/06/18 10:15:23;;;;;;;10.52;3.60;;;27.00;72.20;;;;;;5031275;28;20041;-72
2022/06/18 10:18:30;;;;;;;7.00;3.75;;;27.10;72.30;;;;;;5024267;28;20029;-72
2022/06/18 10:21:10;;;;;;;10.52;4.40;;;27.20;72.30;;;;;;5024759;28;20090;-70
2022/06/18 10:23:54;;;;;;;10.88;3.75;;;27.20;73.80;;;;;;5031149;28;20033;-70
2022/06/18 10:26:32;;;;;;;7.90;3.65;;;27.20;75.10;;;;;;5031847;28;20043;-70
2022/06/18 10:29:40;;;;;;;9.60;3.72;;;27.10;75.80;;;;;;5031915;28;20025;-70
2022/06/18 10:32:21;;;;;;;11.00;4.38;;;27.20;76.80;;;;;;5001234;28;20069;-70
2022/06/18 10:35:12;;;;;;;11.98;4.95;;;27.20;77.50;;;;;;5020134;28;20048;-69
2022/06/18 10:38:05;;;;;;;11.02;4.53;;;27.30;78.10;;;;;;5031863;28;20136;-73
2022/06/18 10:40:37;;;;;;;11.73;4.15;;;27.30;77.40;;;;;;5032147;28;20029;-70
2022/06/18 10:43:09;;;;;;;12.00;4.85;;;27.30;78.50;;;;;;5032988;28;20029;-69
2022/06/18 10:45:50;;;;;;;10.73;3.92;;;27.30;78.80;;;;;;5028165;28;20033;-70
2022/06/18 10:48:25;;;;;;;12.88;4.63;;;27.30;78.70;;;;;;5032346;28;20082;-69
2022/06/18 10:50:54;;;;;;;9.00;3.47;;;27.30;78.80;;;;;;5033731;28;20163;-70
2022/06/18 10:53:24;;;;;;;12.23;3.95;;;27.40;78.10;;;;;;5034541;28;20098;-71
2022/06/18 10:56:01;;;;;;;17.30;4.97;;;27.40;77.00;;;;;;5034999;28;20029;-71
2022/06/18 10:58:27;;;;;;;13.68;4.15;;;27.50;77.90;;;;;;5030843;28;20544;-71
2022/06/18 11:00:57;;;;;;;20.55;4.53;;;27.40;77.60;;;;;;5032042;28;20467;-72
2022/06/18 11:03:26;;;;;;;14.55;3.80;;;27.40;77.70;;;;;;5033284;28;20037;-70
2022/06/18 11:05:52;;;;;;;15.25;3.95;;;27.40;77.40;;;;;;5033217;28;20026;-70
2022/06/18 11:08:28;;;;;;;12.48;4.05;;;27.50;77.40;;;;;;5034514;28;20025;-71
2022/06/18 11:11:02;;;;;;;9.02;4.00;;;27.50;77.40;;;;;;5034353;28;20029;-70
2022/06/18 11:13:35;;;;;;;13.43;3.88;;;27.50;77.40;;;;;;5030760;28;20044;-67
2022/06/18 11:16:11;;;;;;;11.98;3.22;;;27.60;76.70;;;;;;5033871;28;20029;-67
2022/06/18 11:19:03;;;;;;;12.60;3.85;;;27.70;76.80;;;;;;5032786;28;20471;-67
2022/06/18 11:21:43;;;;;;;16.15;3.90;;;27.70;76.90;;;;;;5033099;28;20048;-66
2022/06/18 11:24:11;;;;;;;10.50;3.50;;;27.70;75.10;;;;;;5029634;28;20479;-66
2022/06/18 11:26:50;;;;;;;11.43;3.88;;;27.80;75.90;;;;;;5033220;28;20025;-68
2022/06/18 11:29:45;;;;;;;13.80;4.22;;;27.80;74.90;;;;;;5031267;28;20108;-66
2022/06/18 11:32:40;;;;;;;15.50;3.92;;;27.80;76.10;;;;;;5023452;28;20072;-66
2022/06/18 11:35:08;;;;;;;12.10;4.25;;;27.70;76.20;;;;;;5022049;28;20040;-65
2022/06/18 11:37:34;;;;;;;16.55;4.00;;;27.70;76.40;;;;;;5026752;28;20026;-66
2022/06/18 11:40:06;;;;;;;11.25;3.30;;;27.70;76.50;;;;;;5026802;28;20036;-66
2022/06/18 11:43:13;;;;;;;11.55;3.55;;;27.90;73.20;;;;;;5024453;28;20166;-65
2022/06/18 11:45:42;;;;;;;7.10;3.45;;;27.90;75.60;;;;;;5008527;28;20056;-65
2022/06/18 11:48:32;;;;;;;10.45;3.67;;;27.80;76.00;;;;;;5029276;28;20470;-64
2022/06/18 11:51:12;;;;;;;11.70;3.95;;;27.70;76.20;;;;;;5011132;28;20025;-65
2022/06/18 11:53:53;;;;;;;12.10;3.95;;;27.80;76.10;;;;;;5030757;28;20057;-66
2022/06/18 11:56:39;;;;;;;11.15;3.53;;;27.90;75.40;;;;;;5030902;28;20044;-67
2022/06/18 11:59:38;;;;;;;10.10;3.50;;;28.00;73.60;;;;;;5030407;28;20104;-66
2022/06/18 12:02:08;;;;;;;11.98;3.85;;;28.00;74.90;;;;;;5017916;28;20049;-69
2022/06/18 12:04:57;;;;;;;8.85;3.28;;;27.90;75.50;;;;;;5025598;28;20021;-68
2022/06/18 12:07:32;;;;;;;10.95;3.70;;;27.80;75.50;;;;;;5018833;28;20025;-71
2022/06/18 12:09:58;;;;;;;10.65;3.83;;;27.90;75.70;;;;;;5028113;28;20490;-68
2022/06/18 12:12:51;;;;;;;10.02;3.65;;;27.90;74.70;;;;;;5030863;28;20036;-71
2022/06/18 12:15:31;;;;;;;17.25;3.33;;;27.90;75.20;;;;;;5019283;28;20073;-68
2022/06/18 12:18:16;;;;;;;9.65;3.60;;;27.90;75.00;;;;;;5028276;28;20041;-68
2022/06/18 12:21:09;;;;;;;7.93;3.03;;;27.90;75.00;;;;;;5010610;28;20032;-68
2022/06/18 12:23:39;;;;;;;;;;;27.90;75.00;;;;;;5029600;28;20179;-68
2022/06/18 12:26:37;;;;;;;16.90;3.75;;;28.00;72.90;;;;;;5030457;28;19960;-67
2022/06/18 12:29:17;;;;;;;10.20;3.08;;;28.30;71.90;;;;;;5024003;28;20045;-71
2022/06/18 12:31:59;;;;;;;10.43;3.58;;;28.10;73.20;;;;;;5026524;28;20040;-68
2022/06/18 12:34:41;;;;;;;9.80;3.72;;;28.10;73.80;;;;;;5025825;28;20049;-68
2022/06/18 12:37:46;;;;;;;13.13;3.78;;;28.10;73.50;;;;;;5023695;28;20128;-68
2022/06/18 12:40:29;;;;;;;10.85;3.50;;;28.00;74.10;;;;;;5030059;28;20029;-69
2022/06/18 12:43:25;;;;;;;10.57;3.38;;;27.90;74.30;;;;;;5029942;28;20113;-70
2022/06/18 12:46:03;;;;;;;11.98;3.97;;;28.00;74.00;;;;;;5031160;28;20036;-71
2022/06/18 12:48:35;;;;;;;11.23;3.60;;;27.90;74.20;;;;;;5029617;28;20036;-69
2022/06/18 12:51:06;;;;;;;11.43;3.88;;;28.00;74.00;;;;;;5029283;28;20034;-69
2022/06/18 12:53:52;;;;;;;9.93;4.47;;;28.00;73.50;;;;;;5029753;28;20397;-71
2022/06/18 12:56:20;;;;;;;10.50;3.65;;;28.00;73.80;;;;;;5031302;28;20135;-71
2022/06/18 12:59:12;;;;;;;7.38;3.53;;;27.90;73.80;;;;;;5031719;28;20033;-68
2022/06/18 13:01:50;;;;;;;14.40;3.63;;;27.90;73.90;;;;;;5029642;28;20029;-68
2022/06/18 13:04:57;;;;;;;11.52;2.90;;;27.90;73.80;;;;;;5030062;28;20088;-69
2022/06/18 13:07:37;;;;;;;13.60;3.90;;;27.90;73.70;;;;;;4977337;28;20046;-68
2022/06/18 13:10:06;;;;;;;7.57;3.45;;;27.90;73.60;;;;;;5031524;28;20128;-68
2022/06/18 13:12:42;;;;;;;11.07;3.65;;;28.00;73.80;;;;;;5032003;28;20026;-69
2022/06/18 13:15:51;;;;;;;12.48;3.28;;;27.90;73.90;;;;;;5025687;28;20095;-70
2022/06/18 13:18:22;;;;;;;7.35;3.40;;;28.00;73.90;;;;;;5008732;28;20079;-69